Time;durP1;ratioP1;P1;durP2;ratioP2;P2;SDS_P1;SDS_P2;PMS_P1;PMS_P2;Temp;Humidity;BMP_temperature;BMP_pressure;BME280_temperature;BME280_humidity;BME280_pressure;Samples;Min_cycle;Max_cycle;Signal;HPM_P1;HPM_P2
2024/02/20 00:01:32;;;;;;;16.42;3.47;;;;;;;;;;5031677;28;20043;-68
2024/02/20 00:03:57;;;;;;;26.55;3.95;;;;;;;;;;5031932;28;20037;-67
2024/02/20 00:06:22;;;;;;;13.07;3.17;;;;;;;;;;5031939;28;20046;-68
2024/02/20 00:08:48;;;;;;;35.38;4.78;;;;;;;;;;5031397;28;20037;-68
2024/02/20 00:11:13;;;;;;;24.40;4.25;;;;;;;;;;5031769;28;20072;-68
2024/02/20 00:13:38;;;;;;;21.80;3.67;;;;;;;;;;5028596;28;20037;-68
2024/02/20 00:16:06;;;;;;;21.75;4.32;;;;;;;;;;5031419;28;20660;-69
2024/02/20 00:18:32;;;;;;;21.15;4.25;;;;;;;;;;5030827;28;20041;-68
2024/02/20 00:20:57;;;;;;;25.15;4.93;;;;;;;;;;5031485;28;20057;-68
2024/02/20 00:23:23;;;;;;;9.13;3.85;;;;;;;;;;5031192;28;20072;-67
2024/02/20 00:25:50;;;;;;;35.92;4.20;;;;;;;;;;5031367;28;20041;-68
2024/02/20 00:28:16;;;;;;;23.63;4.15;;;;;;;;;;5031624;28;20040;-68
2024/02/20 00:30:41;;;;;;;28.60;4.25;;;;;;;;;;5031116;28;20041;-68
2024/02/20 00:33:07;;;;;;;14.93;3.53;;;;;;;;;;5030161;28;20037;-67
2024/02/20 00:35:32;;;;;;;18.48;2.90;;;;;;;;;;5013652;28;20046;-68
2024/02/20 00:37:58;;;;;;;25.13;3.65;;;;;;;;;;5031662;28;20075;-67
2024/02/20 00:40:23;;;;;;;27.15;3.17;;;;;;;;;;5028252;28;20041;-68
2024/02/20 00:42:49;;;;;;;20.30;4.03;;;;;;;;;;5030863;28;20042;-68
2024/02/20 00:45:14;;;;;;;26.45;3.60;;;;;;;;;;5031262;28;20030;-68
2024/02/20 00:47:39;;;;;;;23.95;3.72;;;;;;;;;;5030624;28;20041;-68
2024/02/20 00:50:05;;;;;;;18.85;3.40;;;;;;;;;;5030022;28;20033;-67
2024/02/20 00:52:31;;;;;;;22.25;3.42;;;;;;;;;;5031135;28;20037;-69
2024/02/20 00:54:56;;;;;;;19.60;4.10;;;;;;;;;;5028786;28;20041;-67
2024/02/20 00:57:21;;;;;;;17.30;3.20;;;;;;;;;;5031026;28;20481;-68
2024/02/20 00:59:47;;;;;;;18.35;4.05;;;;;;;;;;5030642;28;20018;-69
2024/02/20 01:02:12;;;;;;;22.90;4.40;;;;;;;;;;5029339;28;20046;-68
2024/02/20 01:04:41;;;;;;;21.60;3.92;;;;;;;;;;5029374;28;20049;-69
2024/02/20 01:07:07;;;;;;;12.50;3.33;;;;;;;;;;5031037;28;20021;-69
2024/02/20 01:09:32;;;;;;;23.85;2.85;;;;;;;;;;5028726;28;21301;-69
2024/02/20 01:11:58;;;;;;;22.90;3.05;;;;;;;;;;5030492;28;20084;-68
2024/02/20 01:14:23;;;;;;;29.73;3.42;;;;;;;;;;5030580;28;20373;-68
2024/02/20 01:16:48;;;;;;;25.65;3.83;;;;;;;;;;5030595;28;20465;-68
2024/02/20 01:19:14;;;;;;;19.88;3.92;;;;;;;;;;5030127;28;20492;-68
2024/02/20 01:21:39;;;;;;;42.08;4.90;;;;;;;;;;5030598;28;20033;-68
2024/02/20 01:24:05;;;;;;;42.35;4.60;;;;;;;;;;5030434;28;20108;-68
2024/02/20 01:26:31;;;;;;;28.90;3.22;;;;;;;;;;5030199;28;20041;-68
2024/02/20 01:28:57;;;;;;;27.75;4.00;;;;;;;;;;5030607;28;20040;-68
2024/02/20 01:31:22;;;;;;;22.88;2.75;;;;;;;;;;5030361;28;20037;-67
2024/02/20 01:33:48;;;;;;;17.17;3.10;;;;;;;;;;5029884;28;20110;-68
2024/02/20 01:36:13;;;;;;;21.95;3.30;;;;;;;;;;5030773;28;20068;-68
2024/02/20 01:38:39;;;;;;;24.52;4.68;;;;;;;;;;5028704;28;20120;-68
2024/02/20 01:41:04;;;;;;;21.65;3.00;;;;;;;;;;5025956;28;20045;-69
2024/02/20 01:43:29;;;;;;;12.13;3.22;;;;;;;;;;5030139;28;20033;-68
2024/02/20 01:45:55;;;;;;;20.55;3.88;;;;;;;;;;5029489;28;20045;-68
2024/02/20 01:48:20;;;;;;;30.65;3.65;;;;;;;;;;5028231;28;20033;-67
2024/02/20 01:50:46;;;;;;;27.15;4.07;;;;;;;;;;5011786;28;20061;-68
2024/02/20 01:53:11;;;;;;;18.75;2.80;;;;;;;;;;5028981;28;20033;-68
2024/02/20 01:55:37;;;;;;;12.00;2.60;;;;;;;;;;5028217;28;20045;-69
2024/02/20 01:58:03;;;;;;;35.17;3.50;;;;;;;;;;5029924;28;20133;-69
2024/02/20 02:00:29;;;;;;;21.00;3.03;;;;;;;;;;5028776;28;20042;-67
2024/02/20 02:02:54;;;;;;;23.33;2.80;;;;;;;;;;5011992;28;20572;-68
2024/02/20 02:05:20;;;;;;;18.58;3.38;;;;;;;;;;5029690;28;20072;-67
2024/02/20 02:07:45;;;;;;;42.38;4.25;;;;;;;;;;5030001;28;20095;-67
2024/02/20 02:10:11;;;;;;;32.55;3.67;;;;;;;;;;5012093;28;20037;-68
2024/02/20 02:12:36;;;;;;;34.58;3.47;;;;;;;;;;5029263;28;20074;-68
2024/02/20 02:15:02;;;;;;;21.13;3.53;;;;;;;;;;5030083;28;20045;-68
2024/02/20 02:17:27;;;;;;;22.58;2.78;;;;;;;;;;5028572;28;20099;-68
2024/02/20 02:19:52;;;;;;;23.30;3.28;;;;;;;;;;5029937;28;20040;-68
2024/02/20 02:22:18;;;;;;;34.83;3.10;;;;;;;;;;5029551;28;20037;-68
2024/02/20 02:24:43;;;;;;;27.13;3.70;;;;;;;;;;5026237;28;20077;-69
2024/02/20 02:27:09;;;;;;;25.80;3.72;;;;;;;;;;5029850;28;20026;-68
2024/02/20 02:29:34;;;;;;;16.27;3.33;;;;;;;;;;5029868;28;20045;-68
2024/02/20 02:32:00;;;;;;;20.65;3.00;;;;;;;;;;5029829;28;20029;-68
2024/02/20 02:34:29;;;;;;;17.33;5.03;;;;;;;;;;5028410;28;20029;-68
2024/02/20 02:36:58;;;;;;;26.13;4.53;;;;;;;;;;5029477;28;20065;-68
2024/02/20 02:39:23;;;;;;;28.58;4.38;;;;;;;;;;5028958;28;20435;-69
2024/02/20 02:41:52;;;;;;;27.58;3.95;;;;;;;;;;5013334;28;20025;-68
2024/02/20 02:44:18;;;;;;;22.65;3.63;;;;;;;;;;5033100;28;20196;-68
2024/02/20 02:46:44;;;;;;;27.13;4.45;;;;;;;;;;5032232;28;20091;-67
2024/02/20 02:49:09;;;;;;;15.23;3.70;;;;;;;;;;5033543;28;20120;-68
2024/02/20 02:51:35;;;;;;;23.58;3.45;;;;;;;;;;5031529;28;20052;-67
2024/02/20 02:54:01;;;;;;;28.17;3.42;;;;;;;;;;5028702;28;20038;-68
2024/02/20 02:56:28;;;;;;;24.48;4.00;;;;;;;;;;5026234;28;20080;-67
2024/02/20 02:58:54;;;;;;;12.77;2.97;;;;;;;;;;5014822;28;20048;-68
2024/02/20 03:01:21;;;;;;;22.45;3.13;;;;;;;;;;5032718;28;20108;-68
2024/02/20 03:03:46;;;;;;;20.75;3.67;;;;;;;;;;5031385;28;20018;-68
2024/02/20 03:06:12;;;;;;;15.85;3.05;;;;;;;;;;5032476;28;20049;-69
2024/02/20 03:08:38;;;;;;;33.30;4.03;;;;;;;;;;5033020;28;20045;-67
2024/02/20 03:11:07;;;;;;;15.23;3.80;;;;;;;;;;5015064;28;20038;-68
2024/02/20 03:13:35;;;;;;;16.40;3.72;;;;;;;;;;5031489;28;20043;-69
2024/02/20 03:16:06;;;;;;;25.35;4.07;;;;;;;;;;5032476;28;20592;-68
2024/02/20 03:18:33;;;;;;;34.92;3.92;;;;;;;;;;5020304;28;20046;-67
2024/02/20 03:21:02;;;;;;;21.98;4.28;;;;;;;;;;5031532;28;20053;-67
2024/02/20 03:23:29;;;;;;;17.77;3.55;;;;;;;;;;5032268;28;20548;-69
2024/02/20 03:25:54;;;;;;;36.20;4.85;;;;;;;;;;5031510;28;20435;-67
2024/02/20 03:28:20;;;;;;;27.05;3.58;;;;;;;;;;5032801;28;20037;-68
2024/02/20 03:30:45;;;;;;;24.52;3.90;;;;;;;;;;5029377;28;20040;-68
2024/02/20 03:33:10;;;;;;;14.05;2.80;;;;;;;;;;5032549;28;20063;-68
2024/02/20 03:35:36;;;;;;;48.22;5.70;;;;;;;;;;5032387;28;20041;-68
2024/02/20 03:38:01;;;;;;;20.92;2.97;;;;;;;;;;5032151;28;20037;-68
2024/02/20 03:40:27;;;;;;;38.50;3.88;;;;;;;;;;5032336;28;20083;-69
2024/02/20 03:42:53;;;;;;;25.40;4.40;;;;;;;;;;5032507;28;20038;-68
2024/02/20 03:45:19;;;;;;;31.17;4.72;;;;;;;;;;5032124;28;20377;-68
2024/02/20 03:47:44;;;;;;;29.15;4.45;;;;;;;;;;5032188;28;20040;-68
2024/02/20 03:50:09;;;;;;;28.52;3.60;;;;;;;;;;5032314;28;20068;-68
2024/02/20 03:52:35;;;;;;;39.85;4.07;;;;;;;;;;5031711;28;20519;-67
2024/02/20 03:55:00;;;;;;;26.08;4.22;;;;;;;;;;5031782;28;20034;-68
2024/02/20 03:57:25;;;;;;;38.03;5.90;;;;;;;;;;5032052;28;20060;-67
2024/02/20 03:59:52;;;;;;;59.38;5.65;;;;;;;;;;5031903;28;20041;-67
2024/02/20 04:02:18;;;;;;;27.95;4.57;;;;;;;;;;5031573;28;20053;-68
2024/02/20 04:04:44;;;;;;;30.73;4.75;;;;;;;;;;5031962;28;20508;-67
2024/02/20 04:07:10;;;;;;;40.72;4.88;;;;;;;;;;5031657;28;20531;-68
2024/02/20 04:09:36;;;;;;;52.97;5.47;;;;;;;;;;5030223;28;20076;-67
2024/02/20 04:12:01;;;;;;;33.72;4.90;;;;;;;;;;5030455;28;20599;-68
2024/02/20 04:14:26;;;;;;;35.80;5.22;;;;;;;;;;5031845;28;20384;-68
2024/02/20 04:16:52;;;;;;;23.15;4.40;;;;;;;;;;5030957;28;20037;-68
2024/02/20 04:19:17;;;;;;;45.03;5.03;;;;;;;;;;5031775;28;20049;-67
2024/02/20 04:21:42;;;;;;;51.45;4.80;;;;;;;;;;5031790;28;20481;-67
2024/02/20 04:24:08;;;;;;;47.53;5.40;;;;;;;;;;5029824;28;20459;-67
2024/02/20 04:26:33;;;;;;;26.75;4.15;;;;;;;;;;5031177;28;20132;-68
2024/02/20 04:28:58;;;;;;;30.58;6.05;;;;;;;;;;5031619;28;20053;-67
2024/02/20 04:31:24;;;;;;;35.80;4.30;;;;;;;;;;5030548;28;20125;-67
2024/02/20 04:33:49;;;;;;;51.20;5.13;;;;;;;;;;5031108;28;20124;-67
2024/02/20 04:36:15;;;;;;;42.30;4.40;;;;;;;;;;5030980;28;20071;-67
2024/02/20 04:38:40;;;;;;;33.75;5.15;;;;;;;;;;5031504;28;20045;-67
2024/02/20 04:41:06;;;;;;;38.97;3.83;;;;;;;;;;5029706;28;20048;-67
2024/02/20 04:43:32;;;;;;;33.65;4.72;;;;;;;;;;5031395;28;20044;-68
2024/02/20 04:45:57;;;;;;;54.40;5.47;;;;;;;;;;5029809;28;20049;-68
2024/02/20 04:48:22;;;;;;;40.55;4.53;;;;;;;;;;5030743;28;20039;-68
2024/02/20 04:50:48;;;;;;;47.72;4.60;;;;;;;;;;5031200;28;20029;-68
2024/02/20 04:53:13;;;;;;;34.58;4.28;;;;;;;;;;5030877;28;20041;-68
2024/02/20 04:55:39;;;;;;;31.45;3.53;;;;;;;;;;5030878;28;20036;-67
2024/02/20 04:58:05;;;;;;;29.10;4.10;;;;;;;;;;5031008;28;20531;-67
2024/02/20 05:00:31;;;;;;;24.63;3.70;;;;;;;;;;5030827;28;20041;-68
2024/02/20 05:02:56;;;;;;;31.35;2.70;;;;;;;;;;5030501;28;20037;-68
2024/02/20 05:05:21;;;;;;;32.65;3.33;;;;;;;;;;5028652;28;20057;-68
2024/02/20 05:07:48;;;;;;;27.75;2.45;;;;;;;;;;5029453;28;20068;-69
2024/02/20 05:10:14;;;;;;;22.63;2.70;;;;;;;;;;5030628;28;20044;-67
2024/02/20 05:12:42;;;;;;;11.65;1.65;;;;;;;;;;5029234;28;20037;-67
2024/02/20 05:15:08;;;;;;;8.93;1.80;;;;;;;;;;5030770;28;20053;-68
2024/02/20 05:17:34;;;;;;;17.33;1.73;;;;;;;;;;5030559;28;20041;-67
2024/02/20 05:19:59;;;;;;;24.35;2.35;;;;;;;;;;5030337;28;20414;-68
2024/02/20 05:22:27;;;;;;;17.17;1.50;;;;;;;;;;5030274;28;20037;-67
2024/02/20 05:24:52;;;;;;;8.90;1.50;;;;;;;;;;5030658;28;20036;-67
2024/02/20 05:27:18;;;;;;;12.13;1.92;;;;;;;;;;5028994;28;20030;-67
2024/02/20 05:29:43;;;;;;;5.95;1.40;;;;;;;;;;5030504;28;20671;-68
2024/02/20 05:32:08;;;;;;;8.48;1.35;;;;;;;;;;5030563;28;20535;-67
2024/02/20 05:34:33;;;;;;;11.65;1.70;;;;;;;;;;5029710;28;20033;-67
2024/02/20 05:36:59;;;;;;;7.15;1.65;;;;;;;;;;5030462;28;20094;-68
2024/02/20 05:39:25;;;;;;;10.60;1.70;;;;;;;;;;5030739;28;20052;-68
2024/02/20 05:41:50;;;;;;;14.30;2.33;;;;;;;;;;5029955;28;20087;-68
2024/02/20 05:44:16;;;;;;;11.45;1.98;;;;;;;;;;5029042;28;20045;-68
2024/02/20 05:46:41;;;;;;;8.07;2.20;;;;;;;;;;5030582;28;20128;-67
2024/02/20 05:49:07;;;;;;;17.55;2.97;;;;;;;;;;5030408;28;20108;-68
2024/02/20 05:51:32;;;;;;;10.43;2.65;;;;;;;;;;5029919;28;20113;-68
2024/02/20 05:53:58;;;;;;;19.35;2.95;;;;;;;;;;5028797;28;20144;-68
2024/02/20 05:56:24;;;;;;;16.38;2.50;;;;;;;;;;5028043;28;20025;-67
2024/02/20 05:58:49;;;;;;;12.40;2.60;;;;;;;;;;5029943;28;20050;-67
2024/02/20 06:01:15;;;;;;;16.23;2.67;;;;;;;;;;5028789;28;20046;-68
2024/02/20 06:03:44;;;;;;;27.52;2.50;;;;;;;;;;5017497;28;20454;-67
2024/02/20 06:06:11;;;;;;;15.45;2.53;;;;;;;;;;5028425;28;20049;-67
2024/02/20 06:08:42;;;;;;;31.77;2.60;;;;;;;;;;5027348;28;20033;-67
2024/02/20 06:11:14;;;;;;;29.80;3.28;;;;;;;;;;5030043;28;20034;-68
2024/02/20 06:13:40;;;;;;;21.10;3.22;;;;;;;;;;5028281;28;20042;-68
2024/02/20 06:16:06;;;;;;;19.42;2.50;;;;;;;;;;5029935;28;20033;-67
2024/02/20 06:18:32;;;;;;;19.70;1.95;;;;;;;;;;5034086;28;20041;-67
2024/02/20 06:20:57;;;;;;;17.25;2.33;;;;;;;;;;5033500;28;20392;-67
2024/02/20 06:23:23;;;;;;;22.92;3.47;;;;;;;;;;5033967;28;20055;-68
2024/02/20 06:25:48;;;;;;;31.13;3.40;;;;;;;;;;5033919;28;20499;-67
2024/02/20 06:28:15;;;;;;;24.20;2.97;;;;;;;;;;5033206;28;20179;-67
2024/02/20 06:30:41;;;;;;;22.77;2.97;;;;;;;;;;5033875;28;20036;-68
2024/02/20 06:33:06;;;;;;;22.75;2.20;;;;;;;;;;5033646;28;20366;-68
2024/02/20 06:35:32;;;;;;;38.03;3.38;;;;;;;;;;5033577;28;20052;-68
2024/02/20 06:37:57;;;;;;;26.35;2.58;;;;;;;;;;5015776;28;20511;-68
2024/02/20 06:40:22;;;;;;;30.77;3.10;;;;;;;;;;5033290;28;20481;-68
2024/02/20 06:42:48;;;;;;;21.42;2.25;;;;;;;;;;5033549;28;20045;-68
2024/02/20 06:45:14;;;;;;;14.88;2.17;;;;;;;;;;5033089;28;20045;-67
2024/02/20 06:47:41;;;;;;;13.20;2.40;;;;;;;;;;5033472;28;20037;-68
2024/02/20 06:50:08;;;;;;;16.40;2.30;;;;;;;;;;5033502;28;20048;-68
2024/02/20 06:52:35;;;;;;;22.73;2.15;;;;;;;;;;5032510;28;20036;-68
2024/02/20 06:55:00;;;;;;;16.98;2.13;;;;;;;;;;5032212;28;20079;-67
2024/02/20 06:57:25;;;;;;;22.73;2.25;;;;;;;;;;5032991;28;20045;-67
2024/02/20 06:59:51;;;;;;;18.42;2.47;;;;;;;;;;5032745;28;20029;-68
2024/02/20 07:02:16;;;;;;;23.73;2.67;;;;;;;;;;5033240;28;20033;-67
2024/02/20 07:04:41;;;;;;;15.98;2.65;;;;;;;;;;5032984;28;20048;-67
2024/02/20 07:07:07;;;;;;;18.75;2.40;;;;;;;;;;5032886;28;20025;-69
2024/02/20 07:09:32;;;;;;;14.25;2.05;;;;;;;;;;5033087;28;20502;-68
2024/02/20 07:11:57;;;;;;;17.70;2.83;;;;;;;;;;5033080;28;20094;-68
2024/02/20 07:14:23;;;;;;;22.27;2.35;;;;;;;;;;5032677;28;20087;-68
2024/02/20 07:16:49;;;;;;;14.75;2.00;;;;;;;;;;5031676;28;20037;-68
2024/02/20 07:19:14;;;;;;;17.50;1.92;;;;;;;;;;5032846;28;20045;-67
2024/02/20 07:21:39;;;;;;;14.93;2.10;;;;;;;;;;5032812;28;20033;-68
2024/02/20 07:24:05;;;;;;;19.85;2.65;;;;;;;;;;5032316;28;20393;-67
2024/02/20 07:26:30;;;;;;;8.80;2.10;;;;;;;;;;5032719;28;20052;-68
2024/02/20 07:28:56;;;;;;;15.30;2.08;;;;;;;;;;5009204;28;20115;-68
2024/02/20 07:31:25;;;;;;;9.02;1.83;;;;;;;;;;5030435;28;20046;-69
2024/02/20 07:33:51;;;;;;;7.47;1.42;;;;;;;;;;5030107;28;20127;-68
2024/02/20 07:36:17;;;;;;;12.60;2.15;;;;;;;;;;5027235;28;20030;-68
2024/02/20 07:38:42;;;;;;;8.32;1.40;;;;;;;;;;5032128;28;20033;-68
2024/02/20 07:41:08;;;;;;;17.73;1.85;;;;;;;;;;5032366;28;20045;-68
2024/02/20 07:43:33;;;;;;;15.65;1.95;;;;;;;;;;5032517;28;20033;-70
2024/02/20 07:45:59;;;;;;;23.85;2.08;;;;;;;;;;5031654;28;20453;-70
2024/02/20 07:48:24;;;;;;;8.75;1.60;;;;;;;;;;5031356;28;20469;-70
2024/02/20 07:50:49;;;;;;;18.15;1.42;;;;;;;;;;5031573;28;20041;-70
2024/02/20 07:53:15;;;;;;;7.22;1.13;;;;;;;;;;5031411;28;20029;-69
2024/02/20 07:55:43;;;;;;;19.77;2.13;;;;;;;;;;5031881;28;20056;-68
2024/02/20 07:58:09;;;;;;;20.52;2.08;;;;;;;;;;5030833;28;20057;-69
2024/02/20 08:00:36;;;;;;;17.45;1.73;;;;;;;;;;5030870;28;20075;-69
2024/02/20 08:03:01;;;;;;;5.10;1.02;;;;;;;;;;5031295;28;20426;-70
2024/02/20 08:05:27;;;;;;;9.93;1.30;;;;;;;;;;5031305;28;20085;-69
2024/02/20 08:07:53;;;;;;;13.25;1.35;;;;;;;;;;5031822;28;20041;-68
2024/02/20 08:10:19;;;;;;;8.75;1.23;;;;;;;;;;5021978;28;20048;-69
2024/02/20 08:12:44;;;;;;;3.35;1.20;;;;;;;;;;5031198;28;20018;-70
2024/02/20 08:15:09;;;;;;;4.85;1.90;;;;;;;;;;5032664;28;20045;-69
2024/02/20 08:17:36;;;;;;;10.93;2.03;;;;;;;;;;5030762;28;20041;-68
2024/02/20 08:20:04;;;;;;;14.93;1.77;;;;;;;;;;5031643;28;20033;-70
2024/02/20 08:22:29;;;;;;;2.88;1.30;;;;;;;;;;5031138;28;20033;-69
2024/02/20 08:24:54;;;;;;;8.18;1.20;;;;;;;;;;5030892;28;20053;-69
2024/02/20 08:27:20;;;;;;;4.55;1.58;;;;;;;;;;5031431;28;20025;-69
2024/02/20 08:29:45;;;;;;;4.82;1.70;;;;;;;;;;5031116;28;20484;-70
2024/02/20 08:32:12;;;;;;;3.05;1.30;;;;;;;;;;5028726;28;20044;-68
2024/02/20 08:34:37;;;;;;;2.70;1.10;;;;;;;;;;5030630;28;20045;-69
2024/02/20 08:37:02;;;;;;;3.03;0.93;;;;;;;;;;5031325;28;20390;-69
2024/02/20 08:39:28;;;;;;;2.55;0.90;;;;;;;;;;5029932;28;20049;-69
2024/02/20 08:41:53;;;;;;;2.63;1.40;;;;;;;;;;5030044;28;20057;-67
2024/02/20 08:44:19;;;;;;;4.20;1.77;;;;;;;;;;5030966;28;20037;-71
2024/02/20 08:46:44;;;;;;;4.40;1.30;;;;;;;;;;5027965;28;20072;-69
2024/02/20 08:49:09;;;;;;;11.23;1.38;;;;;;;;;;5029554;28;20128;-70
2024/02/20 08:51:35;;;;;;;6.30;1.60;;;;;;;;;;5028000;28;20449;-68
2024/02/20 08:54:00;;;;;;;1.27;0.70;;;;;;;;;;5029579;28;20043;-69
2024/02/20 08:56:26;;;;;;;2.75;1.20;;;;;;;;;;5030573;28;20025;-68
2024/02/20 08:58:51;;;;;;;5.20;1.23;;;;;;;;;;5030998;28;20032;-68
2024/02/20 09:01:17;;;;;;;2.40;1.13;;;;;;;;;;5013453;28;20049;-69
2024/02/20 09:03:42;;;;;;;5.22;1.58;;;;;;;;;;5026165;28;20033;-69
2024/02/20 09:06:08;;;;;;;7.20;1.38;;;;;;;;;;5030090;28;20056;-69
2024/02/20 09:08:34;;;;;;;3.55;1.13;;;;;;;;;;5030392;28;20045;-68
2024/02/20 09:11:03;;;;;;;4.78;1.20;;;;;;;;;;5030185;28;20029;-69
2024/02/20 09:13:30;;;;;;;3.40;1.20;;;;;;;;;;5030515;28;20032;-69
2024/02/20 09:15:55;;;;;;;4.32;1.25;;;;;;;;;;5029511;28;20076;-69
2024/02/20 09:18:20;;;;;;;3.92;1.27;;;;;;;;;;5030699;28;20072;-69
2024/02/20 09:20:46;;;;;;;3.15;1.13;;;;;;;;;;5030358;28;20037;-69
2024/02/20 09:23:11;;;;;;;4.05;1.23;;;;;;;;;;5029245;28;20041;-69
2024/02/20 09:25:37;;;;;;;4.07;1.15;;;;;;;;;;5030659;28;20573;-68
2024/02/20 09:28:02;;;;;;;2.40;0.80;;;;;;;;;;5030266;28;20033;-68
2024/02/20 09:30:27;;;;;;;3.20;0.80;;;;;;;;;;5030494;28;20818;-68
2024/02/20 09:32:53;;;;;;;4.07;0.95;;;;;;;;;;5029831;28;20036;-67
2024/02/20 09:35:18;;;;;;;1.88;0.65;;;;;;;;;;5030181;28;20037;-68
2024/02/20 09:37:43;;;;;;;2.20;0.65;;;;;;;;;;5008897;28;20180;-69
2024/02/20 09:40:11;;;;;;;2.78;0.88;;;;;;;;;;5023583;28;20033;-68
2024/02/20 09:42:40;;;;;;;3.38;0.95;;;;;;;;;;5027729;28;20603;-69
2024/02/20 09:45:07;;;;;;;4.20;0.90;;;;;;;;;;5028277;28;20041;-68
2024/02/20 09:47:33;;;;;;;2.38;1.00;;;;;;;;;;5012001;28;20064;-69
2024/02/20 09:50:01;;;;;;;1.20;0.45;;;;;;;;;;5017607;28;20071;-68
2024/02/20 09:52:26;;;;;;;2.85;1.05;;;;;;;;;;5023771;28;20103;-68
2024/02/20 09:54:52;;;;;;;2.28;0.77;;;;;;;;;;5023940;28;20041;-68
2024/02/20 09:57:18;;;;;;;3.08;0.90;;;;;;;;;;5025564;28;20115;-69
2024/02/20 09:59:44;;;;;;;5.68;1.00;;;;;;;;;;5025117;28;20430;-69
2024/02/20 10:02:21;;;;;;;3.03;0.73;;;;;;;;;;5024773;28;20036;-69
2024/02/20 10:04:47;;;;;;;2.90;0.80;;;;;;;;;;5023482;28;20061;-71
2024/02/20 10:07:17;;;;;;;3.88;1.02;;;;;;;;;;5021645;28;20070;-69
2024/02/20 10:09:42;;;;;;;7.78;1.17;;;;;;;;;;5024622;28;20675;-68
2024/02/20 10:12:22;;;;;;;3.08;1.10;;;;;;;;;;5025122;28;20163;-69
2024/02/20 10:14:47;;;;;;;6.30;1.33;;;;;;;;;;5020302;28;20033;-69
2024/02/20 10:17:17;;;;;;;7.38;1.25;;;;;;;;;;5025288;28;20215;-68
2024/02/20 10:19:43;;;;;;;2.75;0.85;;;;;;;;;;5024502;28;20174;-68
2024/02/20 10:22:09;;;;;;;6.10;1.13;;;;;;;;;;5023395;28;20469;-68
2024/02/20 10:24:35;;;;;;;9.30;1.13;;;;;;;;;;5021867;28;20416;-68
2024/02/20 10:27:01;;;;;;;8.65;1.65;;;;;;;;;;5007278;28;20041;-68
2024/02/20 10:29:30;;;;;;;9.15;1.25;;;;;;;;;;5025184;28;20032;-68
2024/02/20 10:31:55;;;;;;;12.05;1.30;;;;;;;;;;5025375;28;20151;-69
2024/02/20 10:34:21;;;;;;;4.88;1.10;;;;;;;;;;5024683;28;20993;-69
2024/02/20 10:36:46;;;;;;;4.78;1.23;;;;;;;;;;5023674;28;20061;-68
2024/02/20 10:39:11;;;;;;;7.28;1.13;;;;;;;;;;5024671;28;20037;-68
2024/02/20 10:41:37;;;;;;;8.15;1.60;;;;;;;;;;5022177;28;20045;-69
2024/02/20 10:44:04;;;;;;;8.15;1.95;;;;;;;;;;5024274;28;20452;-68
2024/02/20 10:46:35;;;;;;;11.93;1.38;;;;;;;;;;5007504;28;20689;-69
2024/02/20 10:49:13;;;;;;;4.63;0.85;;;;;;;;;;5025907;28;20042;-69
2024/02/20 10:51:41;;;;;;;7.80;1.73;;;;;;;;;;5026076;28;20127;-68
2024/02/20 10:54:08;;;;;;;12.02;1.42;;;;;;;;;;5025638;28;20053;-69
2024/02/20 10:56:34;;;;;;;9.98;1.10;;;;;;;;;;5007872;28;20883;-68
2024/02/20 10:59:00;;;;;;;6.22;1.38;;;;;;;;;;5023862;28;20038;-69
2024/02/20 11:01:26;;;;;;;7.22;1.38;;;;;;;;;;5001149;28;20056;-68
2024/02/20 11:03:52;;;;;;;10.55;1.85;;;;;;;;;;5026460;28;20392;-69
2024/02/20 11:06:17;;;;;;;12.90;1.75;;;;;;;;;;5028380;28;20057;-69
2024/02/20 11:08:43;;;;;;;10.45;1.50;;;;;;;;;;5027409;28;20049;-69
2024/02/20 11:11:12;;;;;;;7.78;1.40;;;;;;;;;;5013436;28;20144;-71
2024/02/20 11:13:38;;;;;;;4.28;0.85;;;;;;;;;;5023470;28;20037;-68
2024/02/20 11:16:11;;;;;;;4.40;1.27;;;;;;;;;;5020853;28;20052;-69
2024/02/20 11:18:57;;;;;;;10.15;1.88;;;;;;;;;;5010895;28;20507;-68
2024/02/20 11:21:30;;;;;;;7.38;1.48;;;;;;;;;;5029041;28;20118;-68
2024/02/20 11:23:55;;;;;;;5.33;1.10;;;;;;;;;;5026458;28;20041;-69
2024/02/20 11:26:28;;;;;;;5.50;1.60;;;;;;;;;;5010772;28;20520;-69
2024/02/20 11:28:57;;;;;;;11.93;1.33;;;;;;;;;;5027664;28;20042;-69
2024/02/20 11:31:27;;;;;;;3.40;1.00;;;;;;;;;;5009869;28;20108;-69
2024/02/20 11:33:53;;;;;;;6.22;1.48;;;;;;;;;;5028273;28;20029;-68
2024/02/20 11:36:19;;;;;;;12.98;1.55;;;;;;;;;;5026263;28;20076;-70
2024/02/20 11:38:44;;;;;;;7.80;1.05;;;;;;;;;;5025255;28;20068;-68
2024/02/20 11:41:10;;;;;;;6.68;1.30;;;;;;;;;;5027633;28;20037;-69
2024/02/20 11:43:35;;;;;;;9.18;1.38;;;;;;;;;;5027825;28;20500;-68
2024/02/20 11:46:00;;;;;;;10.88;1.65;;;;;;;;;;5026204;28;20037;-69
2024/02/20 11:48:26;;;;;;;4.57;0.98;;;;;;;;;;5027723;28;20108;-68
2024/02/20 11:50:56;;;;;;;7.05;1.00;;;;;;;;;;5028613;28;20037;-68
2024/02/20 11:53:21;;;;;;;8.30;1.20;;;;;;;;;;5027981;28;20408;-70
2024/02/20 11:55:54;;;;;;;4.95;1.13;;;;;;;;;;5026220;28;20034;-69
2024/02/20 11:58:21;;;;;;;6.28;1.02;;;;;;;;;;5027898;28;20025;-69
2024/02/20 12:00:48;;;;;;;7.32;1.35;;;;;;;;;;5026835;28;20048;-69
2024/02/20 12:03:31;;;;;;;6.38;1.20;;;;;;;;;;5009931;28;20480;-69
2024/02/20 12:06:04;;;;;;;6.70;1.65;;;;;;;;;;5025387;28;20122;-70
2024/02/20 12:08:39;;;;;;;5.97;1.40;;;;;;;;;;5008875;28;20191;-68
2024/02/20 12:11:06;;;;;;;3.60;1.00;;;;;;;;;;5026195;28;20083;-69
2024/02/20 12:13:32;;;;;;;10.95;1.35;;;;;;;;;;5009359;28;20527;-68
2024/02/20 12:15:58;;;;;;;7.95;1.33;;;;;;;;;;5025592;28;20163;-69
2024/02/20 12:18:32;;;;;;;5.90;1.30;;;;;;;;;;5026784;28;20075;-68
2024/02/20 12:21:07;;;;;;;4.40;0.98;;;;;;;;;;5026953;28;20049;-68
2024/02/20 12:23:32;;;;;;;3.10;0.75;;;;;;;;;;5027670;28;20120;-69
2024/02/20 12:26:09;;;;;;;13.70;1.83;;;;;;;;;;5026369;28;20141;-69
2024/02/20 12:28:35;;;;;;;7.43;1.00;;;;;;;;;;5022490;28;20472;-69
2024/02/20 12:31:01;;;;;;;11.10;1.50;;;;;;;;;;5025339;28;20632;-68
2024/02/20 12:33:26;;;;;;;4.78;1.00;;;;;;;;;;5026331;28;20037;-68
2024/02/20 12:35:54;;;;;;;3.75;0.93;;;;;;;;;;5026587;28;20037;-69
2024/02/20 12:38:19;;;;;;;2.35;0.93;;;;;;;;;;5026387;28;20029;-69
2024/02/20 12:40:45;;;;;;;9.35;1.95;;;;;;;;;;5025012;28;20488;-68
2024/02/20 12:43:10;;;;;;;5.82;1.10;;;;;;;;;;5023747;28;20033;-70
2024/02/20 12:45:35;;;;;;;4.90;1.42;;;;;;;;;;5028206;28;20067;-69
2024/02/20 12:48:01;;;;;;;4.85;1.25;;;;;;;;;;5020492;28;20061;-69
2024/02/20 12:50:27;;;;;;;6.88;1.65;;;;;;;;;;5022491;28;20091;-68
2024/02/20 12:52:52;;;;;;;6.97;1.58;;;;;;;;;;5018393;28;20038;-68
2024/02/20 12:55:17;;;;;;;6.22;1.15;;;;;;;;;;5021227;28;20475;-69
2024/02/20 12:57:43;;;;;;;5.80;1.05;;;;;;;;;;5025130;28;20041;-68
2024/02/20 13:00:09;;;;;;;5.13;1.30;;;;;;;;;;5024823;28;20477;-68
2024/02/20 13:02:34;;;;;;;6.57;1.23;;;;;;;;;;5025721;28;20033;-69
2024/02/20 13:05:00;;;;;;;5.72;1.25;;;;;;;;;;5022794;28;20654;-70
2024/02/20 13:07:25;;;;;;;9.07;1.10;;;;;;;;;;5025681;28;20044;-69
2024/02/20 13:09:51;;;;;;;4.43;1.17;;;;;;;;;;5025656;28;20040;-68
2024/02/20 13:12:17;;;;;;;4.43;1.33;;;;;;;;;;5024630;28;20068;-69
2024/02/20 13:14:47;;;;;;;4.43;0.90;;;;;;;;;;5024321;28;20704;-69
2024/02/20 13:17:15;;;;;;;4.90;0.80;;;;;;;;;;5022596;28;20045;-69
2024/02/20 13:19:42;;;;;;;8.00;1.33;;;;;;;;;;5026112;28;20037;-68
2024/02/20 13:22:07;;;;;;;6.88;1.40;;;;;;;;;;5007707;28;20038;-68
2024/02/20 13:24:33;;;;;;;8.98;1.70;;;;;;;;;;5018986;28;20029;-69
2024/02/20 13:26:58;;;;;;;3.47;0.75;;;;;;;;;;5026028;28;20037;-68
2024/02/20 13:29:25;;;;;;;8.55;1.95;;;;;;;;;;5022589;28;20049;-69
2024/02/20 13:31:50;;;;;;;6.47;0.98;;;;;;;;;;5024599;28;20038;-68
2024/02/20 13:34:16;;;;;;;9.10;1.23;;;;;;;;;;5023313;28;20036;-70
2024/02/20 13:36:42;;;;;;;9.73;1.23;;;;;;;;;;5025175;28;20041;-69
2024/02/20 13:39:07;;;;;;;3.40;1.15;;;;;;;;;;5025590;28;20026;-70
2024/02/20 13:41:34;;;;;;;6.40;0.93;;;;;;;;;;5025804;28;20033;-68
2024/02/20 13:44:03;;;;;;;12.23;1.15;;;;;;;;;;5022438;28;20735;-68
2024/02/20 13:46:29;;;;;;;2.35;0.93;;;;;;;;;;5023702;28;20040;-68
2024/02/20 13:48:54;;;;;;;3.45;0.90;;;;;;;;;;5026092;28;20037;-68
2024/02/20 13:51:19;;;;;;;9.20;1.00;;;;;;;;;;5024865;28;20045;-69
2024/02/20 13:53:46;;;;;;;5.43;1.38;;;;;;;;;;5024459;28;20112;-69
2024/02/20 13:56:14;;;;;;;2.72;1.00;;;;;;;;;;5026115;28;20030;-68
2024/02/20 13:58:40;;;;;;;4.65;0.98;;;;;;;;;;5023808;28;20121;-68
2024/02/20 14:01:05;;;;;;;3.60;0.93;;;;;;;;;;5025240;28;20310;-67
2024/02/20 14:03:30;;;;;;;3.30;0.90;;;;;;;;;;5024126;28;20033;-68
2024/02/20 14:05:56;;;;;;;5.40;1.10;;;;;;;;;;5025455;28;20068;-69
2024/02/20 14:08:21;;;;;;;5.28;1.13;;;;;;;;;;5025198;28;20427;-68
2024/02/20 14:10:47;;;;;;;5.20;1.42;;;;;;;;;;5025943;28;20099;-69
2024/02/20 14:13:12;;;;;;;3.75;0.85;;;;;;;;;;5023774;28;20047;-68
2024/02/20 14:15:37;;;;;;;1.83;0.82;;;;;;;;;;5025199;28;20458;-69
2024/02/20 14:18:04;;;;;;;3.90;1.00;;;;;;;;;;5024827;28;20053;-68
2024/02/20 14:20:30;;;;;;;2.10;0.75;;;;;;;;;;5025362;28;20042;-69
2024/02/20 14:22:56;;;;;;;7.10;1.10;;;;;;;;;;5024679;28;20026;-70
2024/02/20 14:25:21;;;;;;;10.27;1.17;;;;;;;;;;5023827;28;20271;-69
2024/02/20 14:27:46;;;;;;;6.80;1.60;;;;;;;;;;5025004;28;20041;-69
2024/02/20 14:30:14;;;;;;;3.85;0.77;;;;;;;;;;5024707;28;20040;-69